North Spring Valley, Nevada Weather observations

Data are for 10 minute period ending at time listed.
 Day   Time   Solar   Ave.   Ave.  Ave.  Vector  Max.   Baro.   Total    
  of    of     Rad.   Air    Rel.  Wind   Wind   Wind  Press.  Precip.   
Year   Day            Temp.  Hum.  Speed  Dir.   Gust                    
2016   (PST)  Kw/m2    F      %     mph   deg.    mph    mb.     in.     
-------------------------------------------------------------------------
 125    0:00   0.00   45.7    62    3.2   312     4.9   830.5    0.00 
 125    0:10   0.00   46.3    61    3.5   282     5.5   830.4    0.00 
 125    0:20   0.00   45.3    64    4.6   272     6.1   830.3    0.00 
 125    0:30   0.00   46.0    62    3.8   270     5.2   830.4    0.00 
 125    0:40   0.00   43.7    72    2.4   165     3.9   830.5    0.00 
 125    0:50   0.00   43.0    75    3.2   206     4.5   830.4    0.00 
 125    1:00   0.00   43.5    74    2.9   159     4.5   830.4    0.00 
 125    1:10   0.00   43.3    75    2.9   192     4.2   830.4    0.00 
 125    1:20   0.00   43.5    75    2.2   196     2.9   830.4    0.00 
 125    1:30   0.00   43.5    74    2.3   218     2.9   830.4    0.00 
 125    1:40   0.00   44.1    72    3.4   225     4.3   830.4    0.00 
 125    1:50   0.00   44.1    73    3.8   224     4.6   830.3    0.00 
 125    2:00   0.00   44.0    74    1.1   224     4.2   830.2    0.00 
 125    2:10   0.00   45.2    68    5.0   226     6.1   830.1    0.00 
 125    2:20   0.00   45.2    68    4.7   240     6.0   830.1    0.00 
 125    2:30   0.00   45.0    71    4.5   251     5.3   830.1    0.00 
 125    2:40   0.00   44.4    73    4.4   256     5.3   830.1    0.00 
 125    2:50   0.00   43.6    75    1.8   315     4.8   830.2    0.00 
 125    3:00   0.00   42.9    76    0.4   253     1.5   830.1    0.00 
 125    3:10   0.00   43.4    74    0.8   226     2.0   830.1    0.00 
 125    3:20   100.00  99999.0   99999  99999.0   99999   99999.0   99999.0   99999.00 
 125    3:30   100.00  99999.0   99999  99999.0   99999   99999.0   99999.0   99999.00 
 125    3:40   100.00  99999.0   99999  99999.0   99999   99999.0   99999.0   99999.00 
 125    3:50   100.00  99999.0   99999  99999.0   99999   99999.0   99999.0   99999.00 
 125    4:00   100.00  99999.0   99999  99999.0   99999   99999.0   99999.0   99999.00 
 125    4:10   100.00  99999.0   99999  99999.0   99999   99999.0   99999.0   99999.00 
 125    4:20   100.00  99999.0   99999  99999.0   99999   99999.0   99999.0   99999.00 
 125    4:30   100.00  99999.0   99999  99999.0   99999   99999.0   99999.0   99999.00 
 125    4:40   100.00  99999.0   99999  99999.0   99999   99999.0   99999.0   99999.00 
 125    4:50   100.00  99999.0   99999  99999.0   99999   99999.0   99999.0   99999.00 
 125    5:00   100.00  99999.0   99999  99999.0   99999   99999.0   99999.0   99999.00 
 125    5:10   100.00  99999.0   99999  99999.0   99999   99999.0   99999.0   99999.00 
 125    5:20   100.00  99999.0   99999  99999.0   99999   99999.0   99999.0   99999.00 
 125    5:30   100.00  99999.0   99999  99999.0   99999   99999.0   99999.0   99999.00 
 125    5:40   100.00  99999.0   99999  99999.0   99999   99999.0   99999.0   99999.00 
 125    5:50   100.00  99999.0   99999  99999.0   99999   99999.0   99999.0   99999.00 
 125    6:00   100.00  99999.0   99999  99999.0   99999   99999.0   99999.0   99999.00 
 125    6:10   100.00  99999.0   99999  99999.0   99999   99999.0   99999.0   99999.00 
 125    6:20   100.00  99999.0   99999  99999.0   99999   99999.0   99999.0   99999.00 
 125    6:30   100.00  99999.0   99999  99999.0   99999   99999.0   99999.0   99999.00 
 125    6:40   100.00  99999.0   99999  99999.0   99999   99999.0   99999.0   99999.00 
 125    6:50   100.00  99999.0   99999  99999.0   99999   99999.0   99999.0   99999.00 
 125    7:00   100.00  99999.0   99999  99999.0   99999   99999.0   99999.0   99999.00 
 125    7:10   100.00  99999.0   99999  99999.0   99999   99999.0   99999.0   99999.00 
 125    7:20   100.00  99999.0   99999  99999.0   99999   99999.0   99999.0   99999.00 
 125    7:30   100.00  99999.0   99999  99999.0   99999   99999.0   99999.0   99999.00 
 125    7:40   100.00  99999.0   99999  99999.0   99999   99999.0   99999.0   99999.00 
 125    7:50   100.00  99999.0   99999  99999.0   99999   99999.0   99999.0   99999.00 
 125    8:00   100.00  99999.0   99999  99999.0   99999   99999.0   99999.0   99999.00 
 125    8:10   100.00  99999.0   99999  99999.0   99999   99999.0   99999.0   99999.00 
 125    8:20   100.00  99999.0   99999  99999.0   99999   99999.0   99999.0   99999.00 
 125    8:30   100.00  99999.0   99999  99999.0   99999   99999.0   99999.0   99999.00 
 125    8:40   100.00  99999.0   99999  99999.0   99999   99999.0   99999.0   99999.00 
 125    8:50   100.00  99999.0   99999  99999.0   99999   99999.0   99999.0   99999.00 
 125    9:00   100.00  99999.0   99999  99999.0   99999   99999.0   99999.0   99999.00 
 125    9:10   100.00  99999.0   99999  99999.0   99999   99999.0   99999.0   99999.00 
 125    9:20   100.00  99999.0   99999  99999.0   99999   99999.0   99999.0   99999.00 
 125    9:30   100.00  99999.0   99999  99999.0   99999   99999.0   99999.0   99999.00 
 125    9:40   100.00  99999.0   99999  99999.0   99999   99999.0   99999.0   99999.00 
 125    9:50   100.00  99999.0   99999  99999.0   99999   99999.0   99999.0   99999.00 
 125   10:00   100.00  99999.0   99999  99999.0   99999   99999.0   99999.0   99999.00 
 125   10:10   100.00  99999.0   99999  99999.0   99999   99999.0   99999.0   99999.00 
 125   10:20   100.00  99999.0   99999  99999.0   99999   99999.0   99999.0   99999.00 
 125   10:30   100.00  99999.0   99999  99999.0   99999   99999.0   99999.0   99999.00 
 125   10:40   100.00  99999.0   99999  99999.0   99999   99999.0   99999.0   99999.00 
 125   10:50   100.00  99999.0   99999  99999.0   99999   99999.0   99999.0   99999.00 
 125   11:00   100.00  99999.0   99999  99999.0   99999   99999.0   99999.0   99999.00 
 125   11:10   100.00  99999.0   99999  99999.0   99999   99999.0   99999.0   99999.00 
 125   11:20   100.00  99999.0   99999  99999.0   99999   99999.0   99999.0   99999.00 
 125   11:30   100.00  99999.0   99999  99999.0   99999   99999.0   99999.0   99999.00 
 125   11:40   100.00  99999.0   99999  99999.0   99999   99999.0   99999.0   99999.00 
 125   11:50   100.00  99999.0   99999  99999.0   99999   99999.0   99999.0   99999.00 
 125   12:00   100.00  99999.0   99999  99999.0   99999   99999.0   99999.0   99999.00 
 125   12:10   100.00  99999.0   99999  99999.0   99999   99999.0   99999.0   99999.00 
 125   12:20   100.00  99999.0   99999  99999.0   99999   99999.0   99999.0   99999.00 
 125   12:30   100.00  99999.0   99999  99999.0   99999   99999.0   99999.0   99999.00 
 125   12:40   100.00  99999.0   99999  99999.0   99999   99999.0   99999.0   99999.00 
 125   12:50   100.00  99999.0   99999  99999.0   99999   99999.0   99999.0   99999.00 
 125   13:00   100.00  99999.0   99999  99999.0   99999   99999.0   99999.0   99999.00 
 125   13:10   100.00  99999.0   99999  99999.0   99999   99999.0   99999.0   99999.00 
 125   13:20   100.00  99999.0   99999  99999.0   99999   99999.0   99999.0   99999.00 
 125   13:30   100.00  99999.0   99999  99999.0   99999   99999.0   99999.0   99999.00 
 125   13:40   100.00  99999.0   99999  99999.0   99999   99999.0   99999.0   99999.00 
 125   13:50   100.00  99999.0   99999  99999.0   99999   99999.0   99999.0   99999.00 
 125   14:00   100.00  99999.0   99999  99999.0   99999   99999.0   99999.0   99999.00 
 125   14:10   100.00  99999.0   99999  99999.0   99999   99999.0   99999.0   99999.00 
 125   14:20   100.00  99999.0   99999  99999.0   99999   99999.0   99999.0   99999.00 
 125   14:30   100.00  99999.0   99999  99999.0   99999   99999.0   99999.0   99999.00 
 125   14:40   100.00  99999.0   99999  99999.0   99999   99999.0   99999.0   99999.00 
 125   14:50   100.00  99999.0   99999  99999.0   99999   99999.0   99999.0   99999.00 
 125   15:00   100.00  99999.0   99999  99999.0   99999   99999.0   99999.0   99999.00 
 125   15:10   100.00  99999.0   99999  99999.0   99999   99999.0   99999.0   99999.00 
 125   15:20   0.37   72.1    24   11.2   173    19.0   825.0    0.00 
 125   15:30   0.34   71.0    24   11.4   175    15.9   824.9    0.00 
 125   15:40   0.33   71.5    24    9.1   162    13.4   824.8    0.00 
 125   15:50   0.29   71.1    22   10.8   179    16.0   824.7    0.00 
 125   16:00   0.25   71.1    20   13.4   170    19.8   824.6    0.00 
 125   16:10   100.00  99999.0   99999  99999.0   99999   99999.0   99999.0   99999.00 
 125   16:20   0.22   71.0    20   12.5   186    19.4   824.7    0.00 
 125   16:30   0.18   71.0    19   12.8   191    19.4   824.7    0.00 
 125   16:40   0.17   70.5    21    9.3   182    15.3   824.6    0.00 
 125   16:50   0.16   69.7    24    7.1   172    10.0   824.5    0.00 
 125   17:00   0.20   70.0    22    9.0   177    14.0   824.5    0.00 
 125   17:10   0.10   70.2    19   12.4   186    19.6   824.5    0.00 
 125   17:20   0.06   69.6    18   11.3   184    19.3   824.5    0.00 
 125   17:30   0.09   68.3    21    7.3   181    11.5   824.5    0.00 
 125   17:40   0.08   67.9    20    9.2   186    14.7   824.5    0.00 
 125   17:50   0.06   67.6    20    7.7   187    12.6   824.6    0.00 
 125   18:00   0.04   65.6    24    5.8   179     8.3   824.6    0.00 
 125   18:10   0.03   64.6    24    6.3   178     9.9   824.7    0.00 
 125   18:20   0.02   64.2    23    7.0   182    10.4   824.8    0.00 
 125   18:30   0.01   63.6    24    5.0   194     7.9   824.9    0.00 
 125   18:40   0.00   61.5    28    5.1   174     7.9   825.1    0.00 
 125   18:50   0.00   60.4    30    4.9   175     6.9   825.1    0.00 
 125   19:00   0.00   58.7    32    4.2   184     5.4   825.2    0.00 
 125   19:10   0.00   58.0    33    4.6   194     6.2   825.3    0.00 
 125   19:20   0.00   58.3    32    4.8   193     6.3   825.4    0.00 
 125   19:30   0.00   57.2    35    4.8   205     6.3   825.5    0.00 
 125   19:40   0.00   57.6    33    4.9   206     6.1   825.6    0.00 
 125   19:50   0.00   56.2    35    5.3   222     6.1   825.7    0.00 
 125   20:00   0.00   55.4    36    5.4   225     6.7   825.7    0.00 
 125   20:10   0.00   56.0    33    5.6   224     6.7   825.7    0.00 
 125   20:20   0.00   56.4    31    4.8   217     5.8   825.8    0.00 
 125   20:30   0.00   55.9    32    6.0   231     7.4   825.8    0.00 
 125   20:40   0.00   56.5    30    6.5   228     8.1   825.7    0.00 
 125   20:50   0.00   59.6    26    6.8   219     9.1   825.7    0.00 
 125   21:00   0.00   59.2    27    7.5   226     9.1   825.7    0.00 
 125   21:10   0.00   59.1    27    7.5   229    10.6   825.7    0.00 
 125   21:20   0.00   58.7    28    6.9   230     8.5   825.7    0.00 
 125   21:30   0.00   58.5    28    4.0   196     7.4   825.7    0.00 
 125   21:40   0.00   56.0    32    1.3   308     2.9   825.8    0.00 
 125   21:50   0.00   56.0    31    1.3   201     3.1   825.8    0.00 
 125   22:00   0.00   55.3    32    3.1   220     5.4   825.8    0.00 
 125   22:10   0.00   52.8    42    5.2   249     6.6   825.7    0.00 
 125   22:20   0.00   50.2    47    4.5   247     6.5   825.7    0.00 
 125   22:30   0.00   52.1    41    3.4   234     5.0   825.8    0.00 
 125   22:40   0.00   50.9    45    5.2   236     6.6   825.8    0.00 
 125   22:50   0.00   49.1    52    5.9   255     6.6   825.8    0.00 
 125   23:00   0.00   49.1    52    5.3   257     6.5   825.7    0.00 
 125   23:10   0.00   48.4    53    5.5   254     6.8   825.6    0.00 

Return to North Spring Valley graphs page.


Western Regional Climate Center,wrcc@dri.edu